sensor_id;sensor_type;location;lat;lon;timestamp;P1;durP1;ratioP1;P2;durP2;ratioP2
71003;SDS011;59025;42.050;-8.660;2022-12-11T00:02:13;49.90;;;25.50;;
71003;SDS011;59025;42.050;-8.660;2022-12-11T00:04:41;53.72;;;26.25;;
71003;SDS011;59025;42.050;-8.660;2022-12-11T00:07:08;44.43;;;23.73;;
71003;SDS011;59025;42.050;-8.660;2022-12-11T00:09:36;45.08;;;23.13;;
71003;SDS011;59025;42.050;-8.660;2022-12-11T00:12:04;47.33;;;25.02;;
71003;SDS011;59025;42.050;-8.660;2022-12-11T00:14:32;55.30;;;26.70;;
71003;SDS011;59025;42.050;-8.660;2022-12-11T00:16:59;48.63;;;25.33;;
71003;SDS011;59025;42.050;-8.660;2022-12-11T00:19:28;53.73;;;24.93;;
71003;SDS011;59025;42.050;-8.660;2022-12-11T00:21:56;45.90;;;24.00;;
71003;SDS011;59025;42.050;-8.660;2022-12-11T00:24:24;44.85;;;22.70;;
71003;SDS011;59025;42.050;-8.660;2022-12-11T00:26:51;45.33;;;23.58;;
71003;SDS011;59025;42.050;-8.660;2022-12-11T00:29:19;48.22;;;22.38;;
71003;SDS011;59025;42.050;-8.660;2022-12-11T00:31:46;51.60;;;23.40;;
71003;SDS011;59025;42.050;-8.660;2022-12-11T00:34:14;44.58;;;22.00;;
71003;SDS011;59025;42.050;-8.660;2022-12-11T00:36:43;50.60;;;24.92;;
71003;SDS011;59025;42.050;-8.660;2022-12-11T00:39:10;53.95;;;25.65;;
71003;SDS011;59025;42.050;-8.660;2022-12-11T00:41:38;50.10;;;25.48;;
71003;SDS011;59025;42.050;-8.660;2022-12-11T00:44:05;46.37;;;23.67;;
71003;SDS011;59025;42.050;-8.660;2022-12-11T00:46:33;50.17;;;23.17;;
71003;SDS011;59025;42.050;-8.660;2022-12-11T00:49:01;43.15;;;23.13;;
71003;SDS011;59025;42.050;-8.660;2022-12-11T00:51:28;39.47;;;20.73;;
71003;SDS011;59025;42.050;-8.660;2022-12-11T00:53:57;34.53;;;18.42;;
71003;SDS011;59025;42.050;-8.660;2022-12-11T00:56:25;31.27;;;16.20;;
71003;SDS011;59025;42.050;-8.660;2022-12-11T00:58:52;34.92;;;17.65;;
71003;SDS011;59025;42.050;-8.660;2022-12-11T01:01:21;37.35;;;17.45;;
71003;SDS011;59025;42.050;-8.660;2022-12-11T01:03:50;38.17;;;19.05;;
71003;SDS011;59025;42.050;-8.660;2022-12-11T01:06:19;39.33;;;17.98;;
71003;SDS011;59025;42.050;-8.660;2022-12-11T01:08:48;40.57;;;19.00;;
71003;SDS011;59025;42.050;-8.660;2022-12-11T01:11:38;31.10;;;15.88;;
71003;SDS011;59025;42.050;-8.660;2022-12-11T01:14:06;28.88;;;13.25;;
71003;SDS011;59025;42.050;-8.660;2022-12-11T01:16:34;21.60;;;11.25;;
71003;SDS011;59025;42.050;-8.660;2022-12-11T01:19:02;21.23;;;10.25;;
71003;SDS011;59025;42.050;-8.660;2022-12-11T01:21:30;14.30;;;7.60;;
71003;SDS011;59025;42.050;-8.660;2022-12-11T01:23:58;13.05;;;5.80;;
71003;SDS011;59025;42.050;-8.660;2022-12-11T01:26:25;16.70;;;6.95;;
71003;SDS011;59025;42.050;-8.660;2022-12-11T01:28:55;13.70;;;8.05;;
71003;SDS011;59025;42.050;-8.660;2022-12-11T01:31:22;19.40;;;9.52;;
71003;SDS011;59025;42.050;-8.660;2022-12-11T01:33:52;10.37;;;5.83;;
71003;SDS011;59025;42.050;-8.660;2022-12-11T01:36:20;15.18;;;6.97;;
71003;SDS011;59025;42.050;-8.660;2022-12-11T01:38:49;20.65;;;8.13;;
71003;SDS011;59025;42.050;-8.660;2022-12-11T01:41:18;11.00;;;6.22;;
71003;SDS011;59025;42.050;-8.660;2022-12-11T01:44:01;10.60;;;5.22;;
71003;SDS011;59025;42.050;-8.660;2022-12-11T01:46:31;9.63;;;4.90;;
71003;SDS011;59025;42.050;-8.660;2022-12-11T01:49:00;11.23;;;5.32;;
71003;SDS011;59025;42.050;-8.660;2022-12-11T01:51:32;8.65;;;5.03;;
71003;SDS011;59025;42.050;-8.660;2022-12-11T01:54:06;6.40;;;4.15;;
71003;SDS011;59025;42.050;-8.660;2022-12-11T01:56:37;6.88;;;3.13;;
71003;SDS011;59025;42.050;-8.660;2022-12-11T01:59:09;10.57;;;3.73;;
71003;SDS011;59025;42.050;-8.660;2022-12-11T02:01:39;5.57;;;2.92;;
71003;SDS011;59025;42.050;-8.660;2022-12-11T02:04:10;5.70;;;3.38;;
71003;SDS011;59025;42.050;-8.660;2022-12-11T02:06:40;15.10;;;5.38;;
71003;SDS011;59025;42.050;-8.660;2022-12-11T02:09:09;13.32;;;5.47;;
71003;SDS011;59025;42.050;-8.660;2022-12-11T02:11:44;7.03;;;3.50;;
71003;SDS011;59025;42.050;-8.660;2022-12-11T02:14:23;10.35;;;4.20;;
71003;SDS011;59025;42.050;-8.660;2022-12-11T02:16:58;7.55;;;3.92;;
71003;SDS011;59025;42.050;-8.660;2022-12-11T02:19:36;12.45;;;3.00;;
71003;SDS011;59025;42.050;-8.660;2022-12-11T02:22:26;5.82;;;3.00;;
71003;SDS011;59025;42.050;-8.660;2022-12-11T02:25:04;9.00;;;3.60;;
71003;SDS011;59025;42.050;-8.660;2022-12-11T02:27:40;5.80;;;2.90;;
71003;SDS011;59025;42.050;-8.660;2022-12-11T02:30:13;6.85;;;3.08;;
71003;SDS011;59025;42.050;-8.660;2022-12-11T02:32:44;3.60;;;2.28;;
71003;SDS011;59025;42.050;-8.660;2022-12-11T02:35:14;6.90;;;2.88;;
71003;SDS011;59025;42.050;-8.660;2022-12-11T02:37:45;11.13;;;4.00;;
71003;SDS011;59025;42.050;-8.660;2022-12-11T02:40:16;9.32;;;3.78;;
71003;SDS011;59025;42.050;-8.660;2022-12-11T02:42:47;8.50;;;3.30;;
71003;SDS011;59025;42.050;-8.660;2022-12-11T02:45:19;8.13;;;3.88;;
71003;SDS011;59025;42.050;-8.660;2022-12-11T02:47:49;8.07;;;2.70;;
71003;SDS011;59025;42.050;-8.660;2022-12-11T02:50:18;12.90;;;4.17;;
71003;SDS011;59025;42.050;-8.660;2022-12-11T02:52:49;5.88;;;2.35;;
71003;SDS011;59025;42.050;-8.660;2022-12-11T02:55:20;5.03;;;2.38;;
71003;SDS011;59025;42.050;-8.660;2022-12-11T02:57:50;4.15;;;1.92;;
71003;SDS011;59025;42.050;-8.660;2022-12-11T03:00:23;3.45;;;2.17;;
71003;SDS011;59025;42.050;-8.660;2022-12-11T03:02:51;4.67;;;2.30;;
71003;SDS011;59025;42.050;-8.660;2022-12-11T03:05:18;5.15;;;2.58;;
71003;SDS011;59025;42.050;-8.660;2022-12-11T03:07:46;4.10;;;2.33;;
71003;SDS011;59025;42.050;-8.660;2022-12-11T03:10:14;3.97;;;1.33;;
71003;SDS011;59025;42.050;-8.660;2022-12-11T03:12:44;2.85;;;2.05;;
71003;SDS011;59025;42.050;-8.660;2022-12-11T03:15:16;8.87;;;1.97;;
71003;SDS011;59025;42.050;-8.660;2022-12-11T03:17:49;5.05;;;2.55;;
71003;SDS011;59025;42.050;-8.660;2022-12-11T03:20:29;6.05;;;2.08;;
71003;SDS011;59025;42.050;-8.660;2022-12-11T03:23:06;2.72;;;1.95;;
71003;SDS011;59025;42.050;-8.660;2022-12-11T03:25:42;5.63;;;2.67;;
71003;SDS011;59025;42.050;-8.660;2022-12-11T03:28:17;8.60;;;2.97;;
71003;SDS011;59025;42.050;-8.660;2022-12-11T03:30:48;7.63;;;2.95;;
71003;SDS011;59025;42.050;-8.660;2022-12-11T03:33:21;9.10;;;2.75;;
71003;SDS011;59025;42.050;-8.660;2022-12-11T03:35:52;7.82;;;3.25;;
71003;SDS011;59025;42.050;-8.660;2022-12-11T03:38:23;4.78;;;2.58;;
71003;SDS011;59025;42.050;-8.660;2022-12-11T03:40:54;4.13;;;1.77;;
71003;SDS011;59025;42.050;-8.660;2022-12-11T03:43:27;7.13;;;2.55;;
71003;SDS011;59025;42.050;-8.660;2022-12-11T03:45:56;2.42;;;1.50;;
71003;SDS011;59025;42.050;-8.660;2022-12-11T03:48:27;2.30;;;1.17;;
71003;SDS011;59025;42.050;-8.660;2022-12-11T03:50:58;3.75;;;2.08;;
71003;SDS011;59025;42.050;-8.660;2022-12-11T03:53:28;5.60;;;2.23;;
71003;SDS011;59025;42.050;-8.660;2022-12-11T03:55:55;3.53;;;1.90;;
71003;SDS011;59025;42.050;-8.660;2022-12-11T03:58:24;2.50;;;1.40;;
71003;SDS011;59025;42.050;-8.660;2022-12-11T04:00:52;2.80;;;1.77;;
71003;SDS011;59025;42.050;-8.660;2022-12-11T04:03:19;3.97;;;2.17;;
71003;SDS011;59025;42.050;-8.660;2022-12-11T04:05:49;1.70;;;1.23;;
71003;SDS011;59025;42.050;-8.660;2022-12-11T04:08:18;3.17;;;1.70;;
71003;SDS011;59025;42.050;-8.660;2022-12-11T04:10:47;5.20;;;1.95;;
71003;SDS011;59025;42.050;-8.660;2022-12-11T04:13:35;3.35;;;1.48;;
71003;SDS011;59025;42.050;-8.660;2022-12-11T04:16:03;2.20;;;1.38;;
71003;SDS011;59025;42.050;-8.660;2022-12-11T04:18:30;2.53;;;1.80;;
71003;SDS011;59025;42.050;-8.660;2022-12-11T04:21:16;3.22;;;1.50;;
71003;SDS011;59025;42.050;-8.660;2022-12-11T04:24:01;3.55;;;1.55;;
71003;SDS011;59025;42.050;-8.660;2022-12-11T04:26:45;8.90;;;2.30;;
71003;SDS011;59025;42.050;-8.660;2022-12-11T04:29:13;2.17;;;1.65;;
71003;SDS011;59025;42.050;-8.660;2022-12-11T04:31:41;2.10;;;1.03;;
71003;SDS011;59025;42.050;-8.660;2022-12-11T04:34:10;1.67;;;1.27;;
71003;SDS011;59025;42.050;-8.660;2022-12-11T04:36:39;3.65;;;1.73;;
71003;SDS011;59025;42.050;-8.660;2022-12-11T04:39:07;2.80;;;1.50;;
71003;SDS011;59025;42.050;-8.660;2022-12-11T04:41:35;2.08;;;1.23;;
71003;SDS011;59025;42.050;-8.660;2022-12-11T04:44:03;1.47;;;0.83;;
71003;SDS011;59025;42.050;-8.660;2022-12-11T04:46:31;3.35;;;1.42;;
71003;SDS011;59025;42.050;-8.660;2022-12-11T04:48:59;2.60;;;1.45;;
71003;SDS011;59025;42.050;-8.660;2022-12-11T04:51:26;3.67;;;1.63;;
71003;SDS011;59025;42.050;-8.660;2022-12-11T04:53:56;2.30;;;1.55;;
71003;SDS011;59025;42.050;-8.660;2022-12-11T04:56:24;6.47;;;2.17;;
71003;SDS011;59025;42.050;-8.660;2022-12-11T04:58:52;5.00;;;1.80;;
71003;SDS011;59025;42.050;-8.660;2022-12-11T05:01:20;2.72;;;1.70;;
71003;SDS011;59025;42.050;-8.660;2022-12-11T05:03:48;4.97;;;2.22;;
71003;SDS011;59025;42.050;-8.660;2022-12-11T05:06:16;3.00;;;1.30;;
71003;SDS011;59025;42.050;-8.660;2022-12-11T05:08:44;2.60;;;1.30;;
71003;SDS011;59025;42.050;-8.660;2022-12-11T05:11:13;1.42;;;0.90;;
71003;SDS011;59025;42.050;-8.660;2022-12-11T05:13:41;2.83;;;1.45;;
71003;SDS011;59025;42.050;-8.660;2022-12-11T05:16:10;2.45;;;1.35;;
71003;SDS011;59025;42.050;-8.660;2022-12-11T05:18:39;7.63;;;1.63;;
71003;SDS011;59025;42.050;-8.660;2022-12-11T05:21:07;1.13;;;0.90;;
71003;SDS011;59025;42.050;-8.660;2022-12-11T05:23:36;1.58;;;0.85;;
71003;SDS011;59025;42.050;-8.660;2022-12-11T05:26:04;4.28;;;1.48;;
71003;SDS011;59025;42.050;-8.660;2022-12-11T05:28:35;3.55;;;0.90;;
71003;SDS011;59025;42.050;-8.660;2022-12-11T05:31:05;1.48;;;1.15;;
71003;SDS011;59025;42.050;-8.660;2022-12-11T05:33:34;2.10;;;1.00;;
71003;SDS011;59025;42.050;-8.660;2022-12-11T05:36:02;2.17;;;1.27;;
71003;SDS011;59025;42.050;-8.660;2022-12-11T05:38:30;1.10;;;0.80;;
71003;SDS011;59025;42.050;-8.660;2022-12-11T05:40:58;1.95;;;1.20;;
71003;SDS011;59025;42.050;-8.660;2022-12-11T05:43:27;0.95;;;0.90;;
71003;SDS011;59025;42.050;-8.660;2022-12-11T05:46:04;2.27;;;1.10;;
71003;SDS011;59025;42.050;-8.660;2022-12-11T05:48:33;3.35;;;1.60;;
71003;SDS011;59025;42.050;-8.660;2022-12-11T05:51:01;1.10;;;0.90;;
71003;SDS011;59025;42.050;-8.660;2022-12-11T05:53:30;2.35;;;1.02;;
71003;SDS011;59025;42.050;-8.660;2022-12-11T05:56:01;1.85;;;1.08;;
71003;SDS011;59025;42.050;-8.660;2022-12-11T05:58:30;1.80;;;1.07;;
71003;SDS011;59025;42.050;-8.660;2022-12-11T06:00:59;3.58;;;1.17;;
71003;SDS011;59025;42.050;-8.660;2022-12-11T06:03:28;3.45;;;1.15;;
71003;SDS011;59025;42.050;-8.660;2022-12-11T06:05:55;3.80;;;1.45;;
71003;SDS011;59025;42.050;-8.660;2022-12-11T06:08:23;2.33;;;1.30;;
71003;SDS011;59025;42.050;-8.660;2022-12-11T06:10:50;1.90;;;1.10;;
71003;SDS011;59025;42.050;-8.660;2022-12-11T06:13:18;1.02;;;0.93;;
71003;SDS011;59025;42.050;-8.660;2022-12-11T06:15:45;0.70;;;0.70;;
71003;SDS011;59025;42.050;-8.660;2022-12-11T06:18:14;0.98;;;0.73;;
71003;SDS011;59025;42.050;-8.660;2022-12-11T06:20:42;1.95;;;1.10;;
71003;SDS011;59025;42.050;-8.660;2022-12-11T06:23:10;2.43;;;1.20;;
71003;SDS011;59025;42.050;-8.660;2022-12-11T06:25:37;3.20;;;1.00;;
71003;SDS011;59025;42.050;-8.660;2022-12-11T06:28:05;3.50;;;1.15;;
71003;SDS011;59025;42.050;-8.660;2022-12-11T06:30:33;0.90;;;0.63;;
71003;SDS011;59025;42.050;-8.660;2022-12-11T06:33:01;1.08;;;0.80;;
71003;SDS011;59025;42.050;-8.660;2022-12-11T06:35:30;2.73;;;1.30;;
71003;SDS011;59025;42.050;-8.660;2022-12-11T06:37:58;1.80;;;1.27;;
71003;SDS011;59025;42.050;-8.660;2022-12-11T06:40:26;2.63;;;1.48;;
71003;SDS011;59025;42.050;-8.660;2022-12-11T06:42:53;2.38;;;1.25;;
71003;SDS011;59025;42.050;-8.660;2022-12-11T06:45:21;1.25;;;1.00;;
71003;SDS011;59025;42.050;-8.660;2022-12-11T06:47:48;1.33;;;0.83;;
71003;SDS011;59025;42.050;-8.660;2022-12-11T06:50:16;2.45;;;1.30;;
71003;SDS011;59025;42.050;-8.660;2022-12-11T06:52:45;0.70;;;0.70;;
71003;SDS011;59025;42.050;-8.660;2022-12-11T06:55:13;1.63;;;1.20;;
71003;SDS011;59025;42.050;-8.660;2022-12-11T06:57:40;2.55;;;1.45;;
71003;SDS011;59025;42.050;-8.660;2022-12-11T07:00:08;2.60;;;1.27;;
71003;SDS011;59025;42.050;-8.660;2022-12-11T07:02:37;3.38;;;1.80;;
71003;SDS011;59025;42.050;-8.660;2022-12-11T07:05:04;2.65;;;1.42;;
71003;SDS011;59025;42.050;-8.660;2022-12-11T07:07:32;2.83;;;1.55;;
71003;SDS011;59025;42.050;-8.660;2022-12-11T07:10:02;1.65;;;1.00;;
71003;SDS011;59025;42.050;-8.660;2022-12-11T07:12:29;1.47;;;1.07;;
71003;SDS011;59025;42.050;-8.660;2022-12-11T07:14:57;3.42;;;1.00;;
71003;SDS011;59025;42.050;-8.660;2022-12-11T07:17:24;2.05;;;1.10;;
71003;SDS011;59025;42.050;-8.660;2022-12-11T07:19:52;0.90;;;0.80;;
71003;SDS011;59025;42.050;-8.660;2022-12-11T07:22:19;2.75;;;1.10;;
71003;SDS011;59025;42.050;-8.660;2022-12-11T07:24:47;1.53;;;0.90;;
71003;SDS011;59025;42.050;-8.660;2022-12-11T07:27:16;0.80;;;0.55;;
71003;SDS011;59025;42.050;-8.660;2022-12-11T07:29:43;1.10;;;0.82;;
71003;SDS011;59025;42.050;-8.660;2022-12-11T07:32:11;0.88;;;0.68;;
71003;SDS011;59025;42.050;-8.660;2022-12-11T07:34:39;1.33;;;1.23;;
71003;SDS011;59025;42.050;-8.660;2022-12-11T07:37:07;1.57;;;0.90;;
71003;SDS011;59025;42.050;-8.660;2022-12-11T07:39:34;2.30;;;0.85;;
71003;SDS011;59025;42.050;-8.660;2022-12-11T07:42:02;1.17;;;1.00;;
71003;SDS011;59025;42.050;-8.660;2022-12-11T07:44:31;1.33;;;0.90;;
71003;SDS011;59025;42.050;-8.660;2022-12-11T07:46:59;2.03;;;1.17;;
71003;SDS011;59025;42.050;-8.660;2022-12-11T08:10:35;1.23;;;0.88;;
71003;SDS011;59025;42.050;-8.660;2022-12-11T08:13:03;1.20;;;0.95;;
71003;SDS011;59025;42.050;-8.660;2022-12-11T08:15:30;1.52;;;1.00;;
71003;SDS011;59025;42.050;-8.660;2022-12-11T08:17:58;2.83;;;1.30;;
71003;SDS011;59025;42.050;-8.660;2022-12-11T08:20:26;1.40;;;0.90;;
71003;SDS011;59025;42.050;-8.660;2022-12-11T08:22:55;0.82;;;0.82;;
71003;SDS011;59025;42.050;-8.660;2022-12-11T08:25:22;2.13;;;1.05;;
71003;SDS011;59025;42.050;-8.660;2022-12-11T08:27:51;1.55;;;0.88;;
71003;SDS011;59025;42.050;-8.660;2022-12-11T08:30:19;1.67;;;0.90;;
71003;SDS011;59025;42.050;-8.660;2022-12-11T08:32:47;2.77;;;0.97;;
71003;SDS011;59025;42.050;-8.660;2022-12-11T08:35:14;1.10;;;0.90;;
71003;SDS011;59025;42.050;-8.660;2022-12-11T08:37:42;2.03;;;0.90;;
71003;SDS011;59025;42.050;-8.660;2022-12-11T08:40:10;1.13;;;0.80;;
71003;SDS011;59025;42.050;-8.660;2022-12-11T08:42:38;1.10;;;0.70;;
71003;SDS011;59025;42.050;-8.660;2022-12-11T08:45:08;1.57;;;1.07;;
71003;SDS011;59025;42.050;-8.660;2022-12-11T08:47:36;1.65;;;0.90;;
71003;SDS011;59025;42.050;-8.660;2022-12-11T08:50:04;1.98;;;1.00;;
71003;SDS011;59025;42.050;-8.660;2022-12-11T08:52:32;1.42;;;0.80;;
71003;SDS011;59025;42.050;-8.660;2022-12-11T08:55:00;1.02;;;0.70;;
71003;SDS011;59025;42.050;-8.660;2022-12-11T08:57:28;1.40;;;1.03;;
71003;SDS011;59025;42.050;-8.660;2022-12-11T08:59:56;0.85;;;0.70;;
71003;SDS011;59025;42.050;-8.660;2022-12-11T09:02:25;1.90;;;0.93;;
71003;SDS011;59025;42.050;-8.660;2022-12-11T09:04:52;1.55;;;0.88;;
71003;SDS011;59025;42.050;-8.660;2022-12-11T09:07:20;0.93;;;0.80;;
71003;SDS011;59025;42.050;-8.660;2022-12-11T09:09:47;0.90;;;0.80;;
71003;SDS011;59025;42.050;-8.660;2022-12-11T09:12:15;1.50;;;0.80;;
71003;SDS011;59025;42.050;-8.660;2022-12-11T09:14:43;4.22;;;1.00;;
71003;SDS011;59025;42.050;-8.660;2022-12-11T09:17:10;1.42;;;0.98;;
71003;SDS011;59025;42.050;-8.660;2022-12-11T09:19:40;1.42;;;0.95;;
71003;SDS011;59025;42.050;-8.660;2022-12-11T09:22:07;3.77;;;1.00;;
71003;SDS011;59025;42.050;-8.660;2022-12-11T09:24:35;1.73;;;0.93;;
71003;SDS011;59025;42.050;-8.660;2022-12-11T09:27:03;1.40;;;0.80;;
71003;SDS011;59025;42.050;-8.660;2022-12-11T09:29:31;2.40;;;1.00;;
71003;SDS011;59025;42.050;-8.660;2022-12-11T09:31:59;1.60;;;0.80;;
71003;SDS011;59025;42.050;-8.660;2022-12-11T09:34:26;1.47;;;0.80;;
71003;SDS011;59025;42.050;-8.660;2022-12-11T09:36:55;2.15;;;0.90;;
71003;SDS011;59025;42.050;-8.660;2022-12-11T09:39:23;1.65;;;1.42;;
71003;SDS011;59025;42.050;-8.660;2022-12-11T09:41:52;5.03;;;2.33;;
71003;SDS011;59025;42.050;-8.660;2022-12-11T09:44:30;1.63;;;0.93;;
71003;SDS011;59025;42.050;-8.660;2022-12-11T09:47:01;2.17;;;1.03;;
71003;SDS011;59025;42.050;-8.660;2022-12-11T09:49:32;1.75;;;0.90;;
71003;SDS011;59025;42.050;-8.660;2022-12-11T09:52:08;2.45;;;1.05;;
71003;SDS011;59025;42.050;-8.660;2022-12-11T09:54:41;1.77;;;1.10;;
71003;SDS011;59025;42.050;-8.660;2022-12-11T09:57:17;1.38;;;1.20;;
71003;SDS011;59025;42.050;-8.660;2022-12-11T10:00:05;1.40;;;0.87;;
71003;SDS011;59025;42.050;-8.660;2022-12-11T10:02:54;1.35;;;0.80;;
71003;SDS011;59025;42.050;-8.660;2022-12-11T10:05:36;0.88;;;0.70;;
71003;SDS011;59025;42.050;-8.660;2022-12-11T10:08:16;0.73;;;0.65;;
71003;SDS011;59025;42.050;-8.660;2022-12-11T10:10:50;1.95;;;1.00;;
71003;SDS011;59025;42.050;-8.660;2022-12-11T10:13:29;2.03;;;1.10;;
71003;SDS011;59025;42.050;-8.660;2022-12-11T10:16:09;1.83;;;0.98;;
71003;SDS011;59025;42.050;-8.660;2022-12-11T10:18:42;2.65;;;1.02;;
71003;SDS011;59025;42.050;-8.660;2022-12-11T10:21:10;1.73;;;1.17;;
71003;SDS011;59025;42.050;-8.660;2022-12-11T10:23:42;1.92;;;1.05;;
71003;SDS011;59025;42.050;-8.660;2022-12-11T10:26:15;4.20;;;1.43;;
71003;SDS011;59025;42.050;-8.660;2022-12-11T10:28:44;11.98;;;3.50;;
71003;SDS011;59025;42.050;-8.660;2022-12-11T10:31:15;7.50;;;3.05;;
71003;SDS011;59025;42.050;-8.660;2022-12-11T10:33:48;5.47;;;2.38;;
71003;SDS011;59025;42.050;-8.660;2022-12-11T10:36:23;7.45;;;3.22;;
71003;SDS011;59025;42.050;-8.660;2022-12-11T10:38:55;7.90;;;3.63;;
71003;SDS011;59025;42.050;-8.660;2022-12-11T10:41:27;7.18;;;2.70;;
71003;SDS011;59025;42.050;-8.660;2022-12-11T10:44:11;5.22;;;2.63;;
71003;SDS011;59025;42.050;-8.660;2022-12-11T10:46:41;4.15;;;2.13;;
71003;SDS011;59025;42.050;-8.660;2022-12-11T10:49:19;5.70;;;2.13;;
71003;SDS011;59025;42.050;-8.660;2022-12-11T10:51:48;3.40;;;1.60;;
71003;SDS011;59025;42.050;-8.660;2022-12-11T10:54:26;4.60;;;1.90;;
71003;SDS011;59025;42.050;-8.660;2022-12-11T10:56:57;4.45;;;1.90;;
71003;SDS011;59025;42.050;-8.660;2022-12-11T10:59:28;3.08;;;1.30;;
71003;SDS011;59025;42.050;-8.660;2022-12-11T11:02:01;4.00;;;1.45;;
71003;SDS011;59025;42.050;-8.660;2022-12-11T11:04:31;5.07;;;2.20;;
71003;SDS011;59025;42.050;-8.660;2022-12-11T11:07:03;3.95;;;2.17;;
71003;SDS011;59025;42.050;-8.660;2022-12-11T11:09:40;3.60;;;1.92;;
71003;SDS011;59025;42.050;-8.660;2022-12-11T11:12:18;5.03;;;2.33;;
71003;SDS011;59025;42.050;-8.660;2022-12-11T11:14:57;4.10;;;1.80;;
71003;SDS011;59025;42.050;-8.660;2022-12-11T11:17:26;4.53;;;2.00;;
71003;SDS011;59025;42.050;-8.660;2022-12-11T11:19:54;4.35;;;1.73;;
71003;SDS011;59025;42.050;-8.660;2022-12-11T11:22:24;5.75;;;2.22;;
71003;SDS011;59025;42.050;-8.660;2022-12-11T11:24:54;3.88;;;1.70;;
71003;SDS011;59025;42.050;-8.660;2022-12-11T11:27:26;4.28;;;1.73;;
71003;SDS011;59025;42.050;-8.660;2022-12-11T11:29:57;5.97;;;2.47;;
71003;SDS011;59025;42.050;-8.660;2022-12-11T11:32:29;4.13;;;1.85;;
71003;SDS011;59025;42.050;-8.660;2022-12-11T11:35:13;9.48;;;5.05;;
71003;SDS011;59025;42.050;-8.660;2022-12-11T11:37:53;6.75;;;2.45;;
71003;SDS011;59025;42.050;-8.660;2022-12-11T11:40:27;6.80;;;2.90;;
71003;SDS011;59025;42.050;-8.660;2022-12-11T11:43:04;10.00;;;4.40;;
71003;SDS011;59025;42.050;-8.660;2022-12-11T11:45:43;9.77;;;3.83;;
71003;SDS011;59025;42.050;-8.660;2022-12-11T11:48:23;6.32;;;2.80;;
71003;SDS011;59025;42.050;-8.660;2022-12-11T11:51:01;6.50;;;2.33;;
71003;SDS011;59025;42.050;-8.660;2022-12-11T11:53:39;6.55;;;2.72;;
71003;SDS011;59025;42.050;-8.660;2022-12-11T11:56:15;5.30;;;2.37;;
71003;SDS011;59025;42.050;-8.660;2022-12-11T11:58:52;4.88;;;2.35;;
71003;SDS011;59025;42.050;-8.660;2022-12-11T12:01:26;5.88;;;2.40;;
71003;SDS011;59025;42.050;-8.660;2022-12-11T12:03:55;5.50;;;2.70;;
71003;SDS011;59025;42.050;-8.660;2022-12-11T12:06:28;8.35;;;3.42;;
71003;SDS011;59025;42.050;-8.660;2022-12-11T12:09:09;6.33;;;3.40;;
71003;SDS011;59025;42.050;-8.660;2022-12-11T12:11:51;6.65;;;3.03;;
71003;SDS011;59025;42.050;-8.660;2022-12-11T12:14:23;8.15;;;2.83;;
71003;SDS011;59025;42.050;-8.660;2022-12-11T12:17:10;8.07;;;3.08;;
71003;SDS011;59025;42.050;-8.660;2022-12-11T12:19:49;6.43;;;3.05;;
71003;SDS011;59025;42.050;-8.660;2022-12-11T12:22:26;6.97;;;3.70;;
71003;SDS011;59025;42.050;-8.660;2022-12-11T12:25:09;6.72;;;3.20;;
71003;SDS011;59025;42.050;-8.660;2022-12-11T12:27:48;8.07;;;3.75;;
71003;SDS011;59025;42.050;-8.660;2022-12-11T12:30:22;7.93;;;3.58;;
71003;SDS011;59025;42.050;-8.660;2022-12-11T12:32:58;7.60;;;3.45;;
71003;SDS011;59025;42.050;-8.660;2022-12-11T12:35:37;8.57;;;4.10;;
71003;SDS011;59025;42.050;-8.660;2022-12-11T12:38:12;6.60;;;3.20;;
71003;SDS011;59025;42.050;-8.660;2022-12-11T12:40:47;10.35;;;4.32;;
71003;SDS011;59025;42.050;-8.660;2022-12-11T12:43:39;9.25;;;4.18;;
71003;SDS011;59025;42.050;-8.660;2022-12-11T12:46:28;7.30;;;3.50;;
71003;SDS011;59025;42.050;-8.660;2022-12-11T12:49:06;9.37;;;4.27;;
71003;SDS011;59025;42.050;-8.660;2022-12-11T12:51:39;10.82;;;4.20;;
71003;SDS011;59025;42.050;-8.660;2022-12-11T12:54:10;10.20;;;4.32;;
71003;SDS011;59025;42.050;-8.660;2022-12-11T12:56:41;9.48;;;4.00;;
71003;SDS011;59025;42.050;-8.660;2022-12-11T12:59:19;7.13;;;2.95;;
71003;SDS011;59025;42.050;-8.660;2022-12-11T13:01:49;6.73;;;2.77;;
71003;SDS011;59025;42.050;-8.660;2022-12-11T13:04:27;8.20;;;3.70;;
71003;SDS011;59025;42.050;-8.660;2022-12-11T13:07:09;7.88;;;3.30;;
71003;SDS011;59025;42.050;-8.660;2022-12-11T13:09:40;6.93;;;3.10;;
71003;SDS011;59025;42.050;-8.660;2022-12-11T13:12:11;8.82;;;3.50;;
71003;SDS011;59025;42.050;-8.660;2022-12-11T13:14:41;8.40;;;3.77;;
71003;SDS011;59025;42.050;-8.660;2022-12-11T13:20:14;8.68;;;4.55;;
71003;SDS011;59025;42.050;-8.660;2022-12-11T13:22:48;9.77;;;3.67;;
71003;SDS011;59025;42.050;-8.660;2022-12-11T13:25:19;8.30;;;3.78;;
71003;SDS011;59025;42.050;-8.660;2022-12-11T13:27:50;8.37;;;3.90;;
71003;SDS011;59025;42.050;-8.660;2022-12-11T13:30:24;7.28;;;3.53;;
71003;SDS011;59025;42.050;-8.660;2022-12-11T13:32:56;7.60;;;3.45;;
71003;SDS011;59025;42.050;-8.660;2022-12-11T13:35:28;8.55;;;3.97;;
71003;SDS011;59025;42.050;-8.660;2022-12-11T13:38:00;10.07;;;4.30;;
71003;SDS011;59025;42.050;-8.660;2022-12-11T13:40:34;8.87;;;4.23;;
71003;SDS011;59025;42.050;-8.660;2022-12-11T13:43:06;22.77;;;11.43;;
71003;SDS011;59025;42.050;-8.660;2022-12-11T13:45:44;14.50;;;6.85;;
71003;SDS011;59025;42.050;-8.660;2022-12-11T13:48:16;8.60;;;3.95;;
71003;SDS011;59025;42.050;-8.660;2022-12-11T13:50:45;9.25;;;4.53;;
71003;SDS011;59025;42.050;-8.660;2022-12-11T13:53:14;10.47;;;4.90;;
71003;SDS011;59025;42.050;-8.660;2022-12-11T13:55:42;8.63;;;4.28;;
71003;SDS011;59025;42.050;-8.660;2022-12-11T13:58:17;8.77;;;4.07;;
71003;SDS011;59025;42.050;-8.660;2022-12-11T14:00:55;9.93;;;3.92;;
71003;SDS011;59025;42.050;-8.660;2022-12-11T14:03:30;8.77;;;4.40;;
71003;SDS011;59025;42.050;-8.660;2022-12-11T14:05:58;9.17;;;4.23;;
71003;SDS011;59025;42.050;-8.660;2022-12-11T14:08:29;7.75;;;4.10;;
71003;SDS011;59025;42.050;-8.660;2022-12-11T14:11:00;8.23;;;3.28;;
71003;SDS011;59025;42.050;-8.660;2022-12-11T14:13:30;6.90;;;3.50;;
71003;SDS011;59025;42.050;-8.660;2022-12-11T14:16:01;7.82;;;3.70;;
71003;SDS011;59025;42.050;-8.660;2022-12-11T14:18:30;8.37;;;3.63;;
71003;SDS011;59025;42.050;-8.660;2022-12-11T14:21:00;9.27;;;3.78;;
71003;SDS011;59025;42.050;-8.660;2022-12-11T14:23:30;9.85;;;3.95;;
71003;SDS011;59025;42.050;-8.660;2022-12-11T14:25:59;9.55;;;4.22;;
71003;SDS011;59025;42.050;-8.660;2022-12-11T14:28:37;8.02;;;3.50;;
71003;SDS011;59025;42.050;-8.660;2022-12-11T14:31:10;7.60;;;3.80;;
71003;SDS011;59025;42.050;-8.660;2022-12-11T14:33:41;6.93;;;3.28;;
71003;SDS011;59025;42.050;-8.660;2022-12-11T14:36:11;9.40;;;4.00;;
71003;SDS011;59025;42.050;-8.660;2022-12-11T14:38:41;8.40;;;3.60;;
71003;SDS011;59025;42.050;-8.660;2022-12-11T14:41:12;8.15;;;3.95;;
71003;SDS011;59025;42.050;-8.660;2022-12-11T14:43:46;8.47;;;4.07;;
71003;SDS011;59025;42.050;-8.660;2022-12-11T14:46:19;9.63;;;3.67;;
71003;SDS011;59025;42.050;-8.660;2022-12-11T14:48:53;6.82;;;3.30;;
71003;SDS011;59025;42.050;-8.660;2022-12-11T14:51:25;8.25;;;3.25;;
71003;SDS011;59025;42.050;-8.660;2022-12-11T14:53:56;9.48;;;3.83;;
71003;SDS011;59025;42.050;-8.660;2022-12-11T14:56:24;8.03;;;4.40;;
71003;SDS011;59025;42.050;-8.660;2022-12-11T14:58:56;8.23;;;3.50;;
71003;SDS011;59025;42.050;-8.660;2022-12-11T15:01:28;7.07;;;3.72;;
71003;SDS011;59025;42.050;-8.660;2022-12-11T15:04:02;10.65;;;5.00;;
71003;SDS011;59025;42.050;-8.660;2022-12-11T15:06:32;7.72;;;3.58;;
71003;SDS011;59025;42.050;-8.660;2022-12-11T15:09:08;8.83;;;3.93;;
71003;SDS011;59025;42.050;-8.660;2022-12-11T15:11:42;7.50;;;3.03;;
71003;SDS011;59025;42.050;-8.660;2022-12-11T15:14:11;8.70;;;3.15;;
71003;SDS011;59025;42.050;-8.660;2022-12-11T15:16:43;11.40;;;5.55;;
71003;SDS011;59025;42.050;-8.660;2022-12-11T15:19:15;7.85;;;2.80;;